createdAt,value
2018-08-04T00:00:44.209Z,21.13
2018-08-04T00:02:48.025Z,21.63
2018-08-04T00:04:51.691Z,19.73
2018-08-04T00:06:55.425Z,21.07
2018-08-04T00:08:59.196Z,20.80
2018-08-04T00:11:02.836Z,23.10
2018-08-04T00:13:06.655Z,18.87
2018-08-04T00:15:10.400Z,18.77
2018-08-04T00:17:14.333Z,18.43
2018-08-04T00:19:17.866Z,18.53
2018-08-04T00:21:21.485Z,17.73
2018-08-04T00:23:25.217Z,20.93
2018-08-04T00:25:28.928Z,18.00
2018-08-04T00:27:32.834Z,20.30
2018-08-04T00:29:36.566Z,19.03
2018-08-04T00:31:40.404Z,20.23
2018-08-04T00:33:44.316Z,20.63
2018-08-04T00:35:47.988Z,18.30
2018-08-04T00:37:51.500Z,17.37
2018-08-04T00:39:55.091Z,18.17
2018-08-04T00:41:58.682Z,19.02
2018-08-04T00:44:02.202Z,18.47
2018-08-04T00:46:05.850Z,18.13
2018-08-04T00:48:09.371Z,18.90
2018-08-04T00:50:12.914Z,18.20
2018-08-04T00:52:16.744Z,20.05
2018-08-04T00:54:20.276Z,17.77
2018-08-04T00:56:23.819Z,24.63
2018-08-04T00:58:27.355Z,22.62
2018-08-04T01:00:30.935Z,18.23
2018-08-04T01:02:34.499Z,21.70
2018-08-04T01:04:38.048Z,20.33
2018-08-04T01:06:41.762Z,22.95
2018-08-04T01:08:45.349Z,23.00
2018-08-04T01:10:48.975Z,21.30
2018-08-04T01:12:52.619Z,20.67
2018-08-04T01:14:56.279Z,24.10
2018-08-04T01:16:59.979Z,19.83
2018-08-04T01:19:03.585Z,25.40
2018-08-04T01:21:07.183Z,23.02
2018-08-04T01:23:10.747Z,21.23
2018-08-04T01:25:15.085Z,22.33
2018-08-04T01:27:18.712Z,20.00
2018-08-04T01:29:22.246Z,19.73
2018-08-04T01:31:25.771Z,19.07
2018-08-04T01:33:29.417Z,19.57
2018-08-04T01:35:32.978Z,19.48
2018-08-04T01:37:36.540Z,19.37
2018-08-04T01:39:40.070Z,21.33
2018-08-04T01:41:43.647Z,19.97
2018-08-04T01:43:47.386Z,19.07
2018-08-04T01:45:50.947Z,19.30
2018-08-04T01:47:54.537Z,21.20
2018-08-04T01:49:58.284Z,21.37
2018-08-04T01:52:01.828Z,19.47
2018-08-04T01:54:05.419Z,18.30
2018-08-04T01:56:08.975Z,19.70
2018-08-04T01:58:12.516Z,20.17
2018-08-04T02:00:16.114Z,23.53
2018-08-04T02:02:19.651Z,20.57
2018-08-04T02:04:23.184Z,19.33
2018-08-04T02:06:26.715Z,19.27
2018-08-04T02:08:30.332Z,19.47
2018-08-04T02:10:34.048Z,19.53
2018-08-04T02:12:37.650Z,19.87
2018-08-04T02:14:41.195Z,21.27
2018-08-04T02:16:44.436Z,19.43
2018-08-04T02:18:48.210Z,18.87
2018-08-04T02:20:51.818Z,23.03
2018-08-04T02:22:55.340Z,18.93
2018-08-04T02:24:58.835Z,18.10
2018-08-04T02:27:02.406Z,20.87
2018-08-04T02:29:05.971Z,19.70
2018-08-04T02:31:09.259Z,18.50
2018-08-04T02:33:12.902Z,19.00
2018-08-04T02:35:16.480Z,23.27
2018-08-04T02:37:20.006Z,19.27
2018-08-04T02:39:23.509Z,20.57
2018-08-04T02:41:27.073Z,18.73
2018-08-04T02:43:30.647Z,18.80
2018-08-04T02:45:34.180Z,19.00
2018-08-04T02:47:38.054Z,19.30
2018-08-04T02:49:41.608Z,20.00
2018-08-04T02:51:45.147Z,17.80
2018-08-04T02:53:48.677Z,18.73
2018-08-04T02:55:52.272Z,20.00
2018-08-04T02:57:55.823Z,19.87
2018-08-04T02:59:59.409Z,21.13
2018-08-04T03:02:02.999Z,19.97
2018-08-04T03:04:06.624Z,20.97
2018-08-04T03:06:09.816Z,20.07
2018-08-04T03:08:13.423Z,20.70
2018-08-04T03:10:17.014Z,20.57
2018-08-04T03:12:20.691Z,22.33
2018-08-04T03:14:24.236Z,21.47
2018-08-04T03:16:27.872Z,20.57
2018-08-04T03:18:31.500Z,23.60
2018-08-04T03:20:35.200Z,20.93
2018-08-04T03:22:39.030Z,20.50
2018-08-04T03:24:42.769Z,23.83
2018-08-04T03:26:46.317Z,22.77
2018-08-04T03:28:49.875Z,20.07
2018-08-04T03:30:53.612Z,19.03
2018-08-04T03:32:57.203Z,19.03
2018-08-04T03:35:00.704Z,19.80
2018-08-04T03:37:04.316Z,19.30
2018-08-04T03:39:09.571Z,21.03
2018-08-04T03:41:13.306Z,18.70
2018-08-04T03:43:16.875Z,21.67
2018-08-04T03:45:20.385Z,19.33
2018-08-04T03:47:23.928Z,17.97
2018-08-04T03:49:27.656Z,21.90
2018-08-04T03:51:31.265Z,18.70
2018-08-04T03:53:34.856Z,19.23
2018-08-04T03:55:38.024Z,19.73
2018-08-04T03:57:41.610Z,21.23
2018-08-04T03:59:45.158Z,22.43
2018-08-04T04:01:48.679Z,19.93
2018-08-04T04:03:52.262Z,19.23
2018-08-04T04:05:55.806Z,19.63
2018-08-04T04:07:59.360Z,18.67
2018-08-04T04:10:02.923Z,19.10
2018-08-04T04:12:06.470Z,19.93
2018-08-04T04:14:10.035Z,18.93
2018-08-04T04:16:13.592Z,19.43
2018-08-04T04:18:17.139Z,19.10
2018-08-04T04:20:21.247Z,19.23
2018-08-04T04:22:24.774Z,18.17
2018-08-04T04:24:28.330Z,18.97
2018-08-04T04:26:31.898Z,19.43
2018-08-04T04:28:35.507Z,19.33
2018-08-04T04:30:39.144Z,20.33
2018-08-04T04:32:42.763Z,21.47
2018-08-04T04:34:46.296Z,21.00
2018-08-04T04:36:49.882Z,23.00
2018-08-04T04:38:53.612Z,21.63
2018-08-04T04:40:57.184Z,21.47
2018-08-04T04:43:00.737Z,22.70
2018-08-04T04:45:04.624Z,21.03
2018-08-04T04:47:08.182Z,21.73
2018-08-04T04:49:12.978Z,22.23
2018-08-04T04:51:16.622Z,20.13
2018-08-04T04:53:20.104Z,21.90
2018-08-04T04:55:23.707Z,23.00
2018-08-04T04:57:27.248Z,19.47
2018-08-04T04:59:30.763Z,20.67
2018-08-04T05:01:34.284Z,19.90
2018-08-04T05:03:37.872Z,22.37
2018-08-04T05:05:41.531Z,22.17
2018-08-04T05:07:45.148Z,22.53
2018-08-04T05:09:48.775Z,21.07
2018-08-04T05:11:53.267Z,21.33
2018-08-04T05:13:56.836Z,20.77
2018-08-04T05:16:00.177Z,20.57
2018-08-04T05:18:03.827Z,23.50
2018-08-04T05:20:07.757Z,19.10
2018-08-04T05:22:11.488Z,20.30
2018-08-04T05:24:15.358Z,20.57
2018-08-04T05:26:18.915Z,20.33
2018-08-04T05:28:22.447Z,20.83
2018-08-04T05:30:26.011Z,20.00
2018-08-04T05:32:29.631Z,19.83
2018-08-04T05:34:33.212Z,23.77
2018-08-04T05:36:36.784Z,20.90
2018-08-04T05:38:40.320Z,20.40
2018-08-04T05:40:43.843Z,21.53
2018-08-04T05:42:47.471Z,20.30
2018-08-04T05:44:51.141Z,20.07
2018-08-04T05:46:54.711Z,20.77
2018-08-04T05:48:58.252Z,21.63
2018-08-04T05:51:01.947Z,24.73
2018-08-04T05:53:05.979Z,21.53
2018-08-04T05:55:09.753Z,22.10
2018-08-04T05:57:12.919Z,21.40
2018-08-04T05:59:16.515Z,21.30
2018-08-04T06:01:20.160Z,20.08
2018-08-04T06:03:23.710Z,21.40
2018-08-04T06:05:27.248Z,19.30
2018-08-04T06:07:30.773Z,19.83
2018-08-04T06:09:34.344Z,24.57
2018-08-04T06:11:37.977Z,22.43
2018-08-04T06:13:41.583Z,18.87
2018-08-04T06:15:45.214Z,22.13
2018-08-04T06:17:48.391Z,20.47
2018-08-04T06:19:52.183Z,20.32
2018-08-04T06:21:55.802Z,24.95
2018-08-04T06:23:59.375Z,20.93
2018-08-04T06:26:02.970Z,20.20
2018-08-04T06:28:06.697Z,25.55
2018-08-04T06:30:11.347Z,25.73
2018-08-04T06:32:14.899Z,22.13
2018-08-04T06:34:18.431Z,23.73
2018-08-04T06:36:22.127Z,23.98
2018-08-04T06:38:25.688Z,24.65
2018-08-04T06:40:29.283Z,20.95
2018-08-04T06:42:32.836Z,26.87
2018-08-04T06:44:36.444Z,20.08
2018-08-04T06:46:40.084Z,23.73
2018-08-04T06:48:43.909Z,20.23
2018-08-04T06:50:47.566Z,19.00
2018-08-04T06:52:51.163Z,17.75
2018-08-04T06:54:55.016Z,25.17
2018-08-04T06:56:58.689Z,23.05
2018-08-04T06:59:02.347Z,20.90
2018-08-04T07:01:05.975Z,17.87
2018-08-04T07:03:09.546Z,21.68
2018-08-04T07:05:13.166Z,25.30
2018-08-04T07:07:16.772Z,22.30
2018-08-04T07:09:20.368Z,24.30
2018-08-04T07:11:23.948Z,20.48
2018-08-04T07:13:27.780Z,18.10
2018-08-04T07:15:31.371Z,22.73
2018-08-04T07:17:35.141Z,21.02
2018-08-04T07:19:38.694Z,23.30
2018-08-04T07:21:42.321Z,19.23
2018-08-04T07:23:45.892Z,17.50
2018-08-04T07:25:49.456Z,23.42
2018-08-04T07:27:53.024Z,18.92
2018-08-04T07:29:56.786Z,20.62
2018-08-04T07:32:00.581Z,18.35
2018-08-04T07:34:04.210Z,17.90
2018-08-04T07:36:07.751Z,21.87
2018-08-04T07:38:11.342Z,16.17
2018-08-04T07:40:14.924Z,17.25
2018-08-04T07:42:18.642Z,15.88
2018-08-04T07:44:22.210Z,18.60
2018-08-04T07:46:25.802Z,17.32
2018-08-04T07:48:29.477Z,19.70
2018-08-04T07:50:33.104Z,18.98
2018-08-04T07:52:36.730Z,17.17
2018-08-04T07:54:40.317Z,18.25
2018-08-04T07:58:55.754Z,17.82
2018-08-04T08:00:59.418Z,16.82
2018-08-04T08:03:03.006Z,16.85
2018-08-04T08:05:07.144Z,18.23
2018-08-04T08:07:10.812Z,20.00
2018-08-04T08:09:14.457Z,15.30
2018-08-04T08:11:18.070Z,18.15
2018-08-04T08:13:21.603Z,15.80
2018-08-04T08:15:25.223Z,14.33
2018-08-04T08:17:28.799Z,16.00
2018-08-04T08:19:32.418Z,14.07
2018-08-04T08:21:35.964Z,13.62
2018-08-04T08:23:39.545Z,16.02
2018-08-04T08:25:52.871Z,17.05
2018-08-04T08:27:56.550Z,13.32
2018-08-04T08:30:00.058Z,14.07
2018-08-04T08:32:03.779Z,15.93
2018-08-04T08:34:07.506Z,13.50
2018-08-04T08:36:11.157Z,12.45
2018-08-04T08:38:14.639Z,10.40
2018-08-04T08:40:18.236Z,11.22
2018-08-04T08:42:21.749Z,11.70
2018-08-04T08:44:25.624Z,13.30
2018-08-04T08:46:29.150Z,10.93
2018-08-04T08:48:32.648Z,14.20
2018-08-04T08:50:36.178Z,12.47
2018-08-04T08:52:40.082Z,12.33
2018-08-04T08:54:43.663Z,14.07
2018-08-04T08:56:47.259Z,13.00
2018-08-04T08:58:50.792Z,11.93
2018-08-04T09:00:54.310Z,13.40
2018-08-04T09:02:57.842Z,11.38
2018-08-04T09:05:01.341Z,12.90
2018-08-04T09:07:05.110Z,11.05
2018-08-04T09:09:10.232Z,13.80
2018-08-04T09:11:13.886Z,12.63
2018-08-04T09:13:17.404Z,11.50
2018-08-04T09:15:20.911Z,11.45
2018-08-04T09:17:24.692Z,10.53
2018-08-04T09:19:28.739Z,11.35
2018-08-04T09:21:32.946Z,12.25
2018-08-04T09:23:36.802Z,11.85
2018-08-04T09:25:40.863Z,11.73
2018-08-04T09:27:44.875Z,11.18
2018-08-04T09:29:49.450Z,13.03
2018-08-04T09:31:53.679Z,12.18
2018-08-04T09:33:57.905Z,14.68
2018-08-04T09:36:02.069Z,13.40
2018-08-04T09:38:06.029Z,12.53
2018-08-04T09:40:10.789Z,12.45
2018-08-04T09:42:14.796Z,12.35
2018-08-04T09:44:18.830Z,13.70
2018-08-04T09:46:22.940Z,12.85
2018-08-04T09:48:27.862Z,10.68
2018-08-04T09:50:34.021Z,12.05
2018-08-04T09:52:44.049Z,15.05
2018-08-04T09:54:55.571Z,11.03
2018-08-04T09:57:01.585Z,11.05
2018-08-04T09:59:08.102Z,12.43
2018-08-04T10:01:19.087Z,16.25
2018-08-04T10:03:31.672Z,10.13
2018-08-04T10:05:35.804Z,10.65
2018-08-04T10:07:40.130Z,10.50
2018-08-04T10:09:44.352Z,7.87
2018-08-04T10:11:49.817Z,21.65
2018-08-04T10:13:53.691Z,27.58
2018-08-04T10:15:57.816Z,23.52
2018-08-04T10:18:02.119Z,25.95
2018-08-04T10:20:07.203Z,22.23
2018-08-04T10:22:12.524Z,19.33
2018-08-04T10:24:16.891Z,18.53
2018-08-04T10:26:21.223Z,20.37
2018-08-04T10:28:30.755Z,22.13
2018-08-04T10:30:34.288Z,20.03
2018-08-04T10:32:38.103Z,22.23
2018-08-04T10:34:41.504Z,24.23
2018-08-04T10:36:45.387Z,26.17
2018-08-04T10:38:48.968Z,29.23
2018-08-04T10:40:52.689Z,24.27
2018-08-04T10:42:56.304Z,20.33
2018-08-04T10:44:59.828Z,25.23
2018-08-04T10:47:03.393Z,25.43
2018-08-04T10:49:07.051Z,34.30
2018-08-04T10:51:10.668Z,33.45
2018-08-04T10:53:14.271Z,32.93
2018-08-04T10:55:18.271Z,27.93
2018-08-04T10:57:22.067Z,27.55
2018-08-04T10:59:25.657Z,24.98
2018-08-04T11:01:29.249Z,24.07
2018-08-04T11:03:32.950Z,25.68
2018-08-04T11:05:36.484Z,25.00
2018-08-04T11:07:40.022Z,23.80
2018-08-04T11:09:45.550Z,23.10
2018-08-04T11:11:50.048Z,22.37
2018-08-04T11:13:54.904Z,21.80
2018-08-04T11:15:59.241Z,23.73
2018-08-04T11:18:05.479Z,22.25
2018-08-04T11:20:10.530Z,26.90
2018-08-04T11:22:15.289Z,23.35
2018-08-04T11:24:20.167Z,26.00
2018-08-04T11:26:25.468Z,24.72
2018-08-04T11:28:30.894Z,25.02
2018-08-04T11:30:36.720Z,23.85
2018-08-04T11:32:41.239Z,26.23
2018-08-04T11:34:46.842Z,25.50
2018-08-04T11:36:51.339Z,25.08
2018-08-04T11:38:55.880Z,26.07
2018-08-04T11:41:00.188Z,25.97
2018-08-04T11:43:05.245Z,23.62
2018-08-04T11:45:09.725Z,25.35
2018-08-04T11:47:16.343Z,29.55
2018-08-04T11:49:23.142Z,23.92
2018-08-04T11:51:29.072Z,24.25
2018-08-04T11:53:37.163Z,24.67
2018-08-04T11:55:41.767Z,25.45
2018-08-04T11:57:48.631Z,19.40
2018-08-04T11:59:53.185Z,21.85
2018-08-04T12:01:57.921Z,19.98
2018-08-04T12:04:02.638Z,23.20
2018-08-04T12:06:08.260Z,23.80
2018-08-04T12:08:12.300Z,24.32
2018-08-04T12:10:16.364Z,19.50
2018-08-04T12:12:20.596Z,21.02
2018-08-04T12:14:25.305Z,20.88
2018-08-04T12:16:29.227Z,20.10
2018-08-04T12:18:33.850Z,19.12
2018-08-04T12:20:37.879Z,17.70
2018-08-04T12:22:42.140Z,16.93
2018-08-04T12:24:45.904Z,16.50
2018-08-04T12:26:49.860Z,16.17
2018-08-04T12:28:54.465Z,16.40
2018-08-04T12:30:58.706Z,14.35
2018-08-04T12:33:02.885Z,13.93
2018-08-04T12:35:07.866Z,15.90
2018-08-04T12:37:12.851Z,13.30
2018-08-04T12:39:20.496Z,13.20
2018-08-04T12:41:29.521Z,12.53
2018-08-04T12:43:35.904Z,12.28
2018-08-04T12:45:43.079Z,13.68
2018-08-04T12:47:49.206Z,12.18
2018-08-04T12:49:54.884Z,13.48
2018-08-04T12:52:00.764Z,13.50
2018-08-04T12:54:07.833Z,14.23
2018-08-04T12:56:12.796Z,12.93
2018-08-04T12:58:17.714Z,12.03
2018-08-04T13:00:21.506Z,10.80
2018-08-04T13:02:25.113Z,11.85
2018-08-04T13:04:28.717Z,11.43
2018-08-04T13:06:32.307Z,11.88
2018-08-04T13:08:35.889Z,11.00
2018-08-04T13:10:39.068Z,13.62
2018-08-04T13:12:42.696Z,11.63
2018-08-04T13:14:46.254Z,11.28
2018-08-04T13:16:49.875Z,10.65
2018-08-04T13:18:53.504Z,10.98
2018-08-04T13:20:57.044Z,11.83
2018-08-04T13:23:00.575Z,12.55
2018-08-04T13:25:04.219Z,13.65
2018-08-04T13:27:08.082Z,11.57
2018-08-04T13:29:11.617Z,11.33
2018-08-04T13:31:15.136Z,13.13
2018-08-04T13:33:18.862Z,11.48
2018-08-04T13:35:22.450Z,13.72
2018-08-04T13:37:25.970Z,11.95
2018-08-04T13:39:29.549Z,12.00
2018-08-04T13:41:32.733Z,11.25
2018-08-04T13:43:36.239Z,10.53
2018-08-04T13:45:39.856Z,10.85
2018-08-04T13:47:43.459Z,10.25
2018-08-04T13:49:47.006Z,10.38
2018-08-04T13:51:50.507Z,12.13
2018-08-04T13:53:54.270Z,11.20
2018-08-04T13:55:57.831Z,13.30
2018-08-04T13:58:01.444Z,10.48
2018-08-04T14:00:06.026Z,10.78
2018-08-04T14:02:09.652Z,11.43
2018-08-04T14:04:13.310Z,10.03
2018-08-04T14:06:16.873Z,9.35
2018-08-04T14:08:20.462Z,11.65
2018-08-04T14:10:24.345Z,10.68
2018-08-04T14:12:27.971Z,9.98
2018-08-04T14:14:31.523Z,9.75
2018-08-04T14:16:35.138Z,9.65
2018-08-04T14:18:38.766Z,9.45
2018-08-04T14:20:42.283Z,9.25
2018-08-04T14:22:45.794Z,9.55
2018-08-04T14:24:49.368Z,9.65
2018-08-04T14:26:53.061Z,9.50
2018-08-04T14:28:56.654Z,11.08
2018-08-04T14:31:00.283Z,9.73
2018-08-04T14:33:03.804Z,9.03
2018-08-04T14:35:07.367Z,10.40
2018-08-04T14:37:10.840Z,11.88
2018-08-04T14:39:14.524Z,10.43
2018-08-04T14:41:18.147Z,23.10
2018-08-04T14:43:21.682Z,18.37
2018-08-04T14:45:25.207Z,22.50
2018-08-04T14:47:28.731Z,19.75
2018-08-04T14:49:32.986Z,15.58
2018-08-04T14:51:36.596Z,20.35
2018-08-04T14:53:40.124Z,21.93
2018-08-04T14:55:43.654Z,21.57
2018-08-04T14:57:47.217Z,20.65
2018-08-04T14:59:50.829Z,25.32
2018-08-04T15:01:54.416Z,23.95
2018-08-04T15:03:57.908Z,22.93
2018-08-04T15:06:01.435Z,20.32
2018-08-04T15:08:05.017Z,18.95
2018-08-04T15:10:08.634Z,19.98
2018-08-04T15:12:12.117Z,20.95
2018-08-04T15:14:15.613Z,20.77
2018-08-04T15:16:19.136Z,19.60
2018-08-04T15:18:22.637Z,18.07
2018-08-04T15:20:26.154Z,20.82
2018-08-04T15:22:29.703Z,20.82
2018-08-04T15:24:33.259Z,21.27
2018-08-04T15:26:36.872Z,24.98
2018-08-04T15:28:40.435Z,23.70
2018-08-04T15:30:44.184Z,22.10
2018-08-04T15:32:47.764Z,21.37
2018-08-04T15:34:51.443Z,23.30
2018-08-04T15:36:55.115Z,20.52
2018-08-04T15:38:58.683Z,20.85
2018-08-04T15:41:02.204Z,17.70
2018-08-04T15:43:05.637Z,18.12
2018-08-04T15:45:09.296Z,20.70
2018-08-04T15:47:12.884Z,16.75
2018-08-04T15:49:16.384Z,17.95
2018-08-04T15:51:19.936Z,17.12
2018-08-04T15:53:23.482Z,17.23
2018-08-04T15:55:27.007Z,17.60
2018-08-04T15:57:30.555Z,17.95
2018-08-04T15:59:34.164Z,17.42
2018-08-04T16:01:37.899Z,17.35
2018-08-04T16:03:41.070Z,16.12
2018-08-04T16:05:44.591Z,15.48
2018-08-04T16:07:48.124Z,15.05
2018-08-04T16:09:51.765Z,16.55
2018-08-04T16:11:55.555Z,20.20
2018-08-04T16:13:59.088Z,18.30
2018-08-04T16:16:02.805Z,19.05
2018-08-04T16:18:06.408Z,19.02
2018-08-04T16:20:12.931Z,16.93
2018-08-04T16:22:16.691Z,17.07
2018-08-04T16:24:20.449Z,18.75
2018-08-04T16:26:24.035Z,16.75
2018-08-04T16:28:27.579Z,19.20
2018-08-04T16:30:31.227Z,19.35
2018-08-04T16:32:34.742Z,16.10
2018-08-04T16:34:38.365Z,16.50
2018-08-04T16:36:42.003Z,15.30
2018-08-04T16:38:45.561Z,15.95
2018-08-04T16:40:49.078Z,16.15
2018-08-04T16:42:52.584Z,17.98
2018-08-04T16:44:56.123Z,18.12
2018-08-04T16:46:59.672Z,17.20
2018-08-04T16:49:03.215Z,17.73
2018-08-04T16:51:06.739Z,17.15
2018-08-04T16:53:10.331Z,19.35
2018-08-04T16:55:13.841Z,20.97
2018-08-04T16:57:17.376Z,21.23
2018-08-04T16:59:20.896Z,23.18
2018-08-04T17:01:24.413Z,22.07
2018-08-04T17:03:28.036Z,30.60
2018-08-04T17:05:31.535Z,24.70
2018-08-04T17:07:35.098Z,21.00
2018-08-04T17:09:38.776Z,19.15
2018-08-04T17:11:42.725Z,17.35
2018-08-04T17:13:46.334Z,15.32
2018-08-04T17:15:49.850Z,16.55
2018-08-04T17:17:53.343Z,17.60
2018-08-04T17:19:56.863Z,17.35
2018-08-04T17:22:00.424Z,18.07
2018-08-04T17:24:03.997Z,18.48
2018-08-04T17:26:07.542Z,19.57
2018-08-04T17:28:11.190Z,18.85
2018-08-04T17:30:14.728Z,16.02
2018-08-04T17:32:18.307Z,19.42
2018-08-04T17:34:21.791Z,16.62
2018-08-04T17:36:25.332Z,18.00
2018-08-04T17:38:28.903Z,13.43
2018-08-04T17:40:32.420Z,16.50
2018-08-04T17:42:36.049Z,14.85
2018-08-04T17:44:39.656Z,22.98
2018-08-04T17:46:43.241Z,22.58
2018-08-04T17:48:46.750Z,19.87
2018-08-04T17:50:50.324Z,19.48
2018-08-04T17:52:53.995Z,18.17
2018-08-04T17:54:57.496Z,18.35
2018-08-04T17:57:01.040Z,14.23
2018-08-04T17:59:04.570Z,14.33
2018-08-04T18:01:08.289Z,14.78
2018-08-04T18:03:11.859Z,18.87
2018-08-04T18:05:15.416Z,19.42
2018-08-04T18:07:18.930Z,19.87
2018-08-04T18:09:22.467Z,18.40
2018-08-04T18:11:25.994Z,17.62
2018-08-04T18:13:29.810Z,18.17
2018-08-04T18:15:33.403Z,17.02
2018-08-04T18:17:37.010Z,17.07
2018-08-04T18:19:40.646Z,15.55
2018-08-04T18:21:44.385Z,18.10
2018-08-04T18:23:47.977Z,19.12
2018-08-04T18:25:51.567Z,17.50
2018-08-04T18:27:55.133Z,25.60
2018-08-04T18:29:58.855Z,22.90
2018-08-04T18:32:02.683Z,21.05
2018-08-04T18:34:06.242Z,19.60
2018-08-04T18:36:09.893Z,20.17
2018-08-04T18:38:13.462Z,21.00
2018-08-04T18:40:17.091Z,17.90
2018-08-04T18:42:20.788Z,16.90
2018-08-04T18:44:24.534Z,16.90
2018-08-04T18:46:28.184Z,15.32
2018-08-04T18:48:31.836Z,16.48
2018-08-04T18:50:35.492Z,17.25
2018-08-04T18:52:39.087Z,20.70
2018-08-04T18:54:42.745Z,21.07
2018-08-04T18:56:46.329Z,19.90
2018-08-04T18:58:49.965Z,18.37
2018-08-04T19:00:53.564Z,16.62
2018-08-04T19:02:57.141Z,16.80
2018-08-04T19:05:00.719Z,17.73
2018-08-04T19:07:03.981Z,19.15
2018-08-04T19:09:09.403Z,20.65
2018-08-04T19:11:12.988Z,17.73
2018-08-04T19:13:16.615Z,17.45
2018-08-04T19:15:20.215Z,19.60
2018-08-04T19:17:23.965Z,24.25
2018-08-04T19:19:27.615Z,19.43
2018-08-04T19:21:31.183Z,19.85
2018-08-04T19:23:34.851Z,22.93
2018-08-04T19:25:38.457Z,25.23
2018-08-04T19:27:42.128Z,23.43
2018-08-04T19:29:45.702Z,24.50
2018-08-04T19:31:49.268Z,22.87
2018-08-04T19:33:52.968Z,25.95
2018-08-04T19:35:56.577Z,25.40
2018-08-04T19:38:00.127Z,22.75
2018-08-04T19:40:03.831Z,24.32
2018-08-04T19:42:07.653Z,22.20
2018-08-04T19:44:11.230Z,21.00
2018-08-04T19:46:14.936Z,20.07
2018-08-04T19:48:18.506Z,19.00
2018-08-04T19:50:22.118Z,17.77
2018-08-04T19:52:25.636Z,19.83
2018-08-04T19:54:29.178Z,20.35
2018-08-04T19:56:32.722Z,19.47
2018-08-04T19:58:36.276Z,20.83
2018-08-04T20:00:39.923Z,22.85
2018-08-04T20:02:43.464Z,20.82
2018-08-04T20:04:47.065Z,21.02
2018-08-04T20:06:50.633Z,21.93
2018-08-04T20:08:54.213Z,22.40
2018-08-04T20:10:57.981Z,25.13
2018-08-04T20:13:01.574Z,23.43
2018-08-04T20:15:05.549Z,22.03
2018-08-04T20:17:09.127Z,23.77
2018-08-04T20:19:12.891Z,23.30
2018-08-04T20:21:16.144Z,20.62
2018-08-04T20:23:19.741Z,21.20
2018-08-04T20:25:23.404Z,19.87
2018-08-04T20:27:27.095Z,19.97
2018-08-04T20:29:30.895Z,18.40
2018-08-04T20:31:34.424Z,18.03
2018-08-04T20:33:38.043Z,21.27
2018-08-04T20:35:41.642Z,18.02
2018-08-04T20:37:45.345Z,20.83
2018-08-04T20:39:48.931Z,20.20
2018-08-04T20:41:52.499Z,20.07
2018-08-04T20:43:56.043Z,20.33
2018-08-04T20:45:59.624Z,19.20
2018-08-04T20:48:03.266Z,18.63
2018-08-04T20:50:06.934Z,21.47
2018-08-04T20:52:10.489Z,18.83
2018-08-04T20:54:14.729Z,17.80
2018-08-04T20:56:18.379Z,19.07
2018-08-04T20:58:21.600Z,18.67
2018-08-04T21:00:24.818Z,17.10
2018-08-04T21:02:28.491Z,18.40
2018-08-04T21:04:33.323Z,16.87
2018-08-04T21:06:36.863Z,17.80
2018-08-04T21:08:40.412Z,17.97
2018-08-04T21:10:44.112Z,19.10
2018-08-04T21:12:47.868Z,17.20
2018-08-04T21:14:51.197Z,17.83
2018-08-04T21:16:55.789Z,18.00
2018-08-04T21:18:59.356Z,18.40
2018-08-04T21:21:02.970Z,18.77
2018-08-04T21:23:06.913Z,21.77
2018-08-04T21:25:10.593Z,21.43
2018-08-04T21:27:14.184Z,23.27
2018-08-04T21:29:17.737Z,20.80
2018-08-04T21:31:21.381Z,19.17
2018-08-04T21:33:25.044Z,17.60
2018-08-04T21:35:28.615Z,17.37
2018-08-04T21:37:32.211Z,15.97
2018-08-04T21:39:35.781Z,15.73
2018-08-04T21:41:39.598Z,16.97
2018-08-04T21:43:43.094Z,16.47
2018-08-04T21:45:46.719Z,17.20
2018-08-04T21:47:50.297Z,21.20
2018-08-04T21:49:53.811Z,18.20
2018-08-04T21:51:57.383Z,20.87
2018-08-04T21:54:00.911Z,18.93
2018-08-04T21:56:04.795Z,15.73
2018-08-04T21:58:08.337Z,17.03
2018-08-04T22:00:15.480Z,15.87
2018-08-04T22:02:19.144Z,16.53
2018-08-04T22:04:22.788Z,20.53
2018-08-04T22:06:51.667Z,16.67
2018-08-04T22:09:06.535Z,19.90
2018-08-04T22:11:10.083Z,19.77
2018-08-04T22:13:13.401Z,18.13
2018-08-04T22:15:17.199Z,17.20
2018-08-04T22:17:20.743Z,17.90
2018-08-04T22:19:24.306Z,16.83
2018-08-04T22:21:27.915Z,19.50
2018-08-04T22:23:31.600Z,19.67
2018-08-04T22:25:35.205Z,17.00
2018-08-04T22:27:38.830Z,15.63
2018-08-04T22:29:42.599Z,16.30
2018-08-04T22:31:46.156Z,15.30
2018-08-04T22:33:49.777Z,19.60
2018-08-04T22:35:53.497Z,19.90
2018-08-04T22:37:57.080Z,17.43
2018-08-04T22:40:00.658Z,17.47
2018-08-04T22:42:04.435Z,18.33
2018-08-04T22:44:08.051Z,15.90
2018-08-04T22:46:15.255Z,17.13
2018-08-04T22:48:20.052Z,17.53
2018-08-04T22:50:23.587Z,19.03
2018-08-04T22:52:27.264Z,19.33
2018-08-04T22:54:30.939Z,16.60
2018-08-04T22:56:34.159Z,16.13
2018-08-04T22:58:37.737Z,17.40
2018-08-04T23:00:42.676Z,15.90
2018-08-04T23:02:46.533Z,15.30
2018-08-04T23:04:50.165Z,14.70
2018-08-04T23:06:53.804Z,14.40
2018-08-04T23:08:57.505Z,13.37
2018-08-04T23:11:01.263Z,14.37
2018-08-04T23:13:04.930Z,14.57
2018-08-04T23:15:08.519Z,17.70
2018-08-04T23:17:12.181Z,18.20
2018-08-04T23:19:15.825Z,17.83
2018-08-04T23:21:19.427Z,15.80
2018-08-04T23:23:23.052Z,16.07
2018-08-04T23:25:26.614Z,16.77
2018-08-04T23:27:30.220Z,15.90
2018-08-04T23:29:33.745Z,20.00
2018-08-04T23:31:36.970Z,19.90
2018-08-04T23:33:40.532Z,18.80
2018-08-04T23:35:44.055Z,17.20
2018-08-04T23:37:48.149Z,16.93
2018-08-04T23:39:51.722Z,17.10
2018-08-04T23:41:55.279Z,16.37
2018-08-04T23:43:58.806Z,16.37
2018-08-04T23:46:02.438Z,16.70
2018-08-04T23:48:06.107Z,16.10
2018-08-04T23:50:09.712Z,18.20
2018-08-04T23:52:13.284Z,16.37
2018-08-04T23:54:16.844Z,17.13
2018-08-04T23:56:20.504Z,16.13
2018-08-04T23:58:24.025Z,17.43
